Time;durP1;ratioP1;P1;durP2;ratioP2;P2;SDS_P1;SDS_P2;PMS_P1;PMS_P2;Temp;Humidity;BMP_temperature;BMP_pressure;BME280_temperature;BME280_humidity;BME280_pressure;Samples;Min_cycle;Max_cycle;Signal;HPM_P1;HPM_P2
2022/11/12 00:02:19;;;;;;;70.72;36.58;;;307.20;2304.00;;;;;;5056454;28;20430;-80
2022/11/12 00:04:45;;;;;;;65.60;38.38;;;307.20;2304.00;;;;;;5057181;28;20025;-80
2022/11/12 00:07:11;;;;;;;61.15;34.58;;;307.20;2304.00;;;;;;5074668;28;20016;-81
2022/11/12 00:09:36;;;;;;;64.32;35.08;;;307.20;2304.00;;;;;;5056917;28;20115;-80
2022/11/12 00:12:02;;;;;;;54.65;33.63;;;307.20;2304.00;;;;;;5056917;28;20043;-80
2022/11/12 00:14:28;;;;;;;62.60;35.25;;;307.20;2304.00;;;;;;5057042;28;20086;-80
2022/11/12 00:16:54;;;;;;;62.85;36.60;;;307.20;2304.00;;;;;;5056943;28;20066;-80
2022/11/12 00:19:19;;;;;;;56.13;33.67;;;307.20;2304.00;;;;;;5056901;28;20474;-80
2022/11/12 00:21:45;;;;;;;58.70;35.30;;;307.30;2304.00;;;;;;5074568;28;20100;-79
2022/11/12 00:24:11;;;;;;;58.20;33.55;;;307.30;2304.00;;;;;;5057084;28;20025;-80
2022/11/12 00:26:36;;;;;;;59.97;33.90;;;307.30;2304.00;;;;;;5056398;28;20048;-80
2022/11/12 00:29:02;;;;;;;61.85;35.78;;;307.40;2304.00;;;;;;5055992;28;20040;-79
2022/11/12 00:31:28;;;;;;;55.63;33.22;;;307.40;2304.00;;;;;;5056889;28;20040;-80
2022/11/12 00:33:54;;;;;;;53.85;32.05;;;307.40;2304.00;;;;;;5056658;28;20028;-80
2022/11/12 00:36:19;;;;;;;;;;;307.50;2304.00;;;;;;5056988;28;20032;-80
2022/11/12 00:38:45;;;;;;;54.45;32.25;;;307.50;2304.00;;;;;;5055862;28;19908;-80
2022/11/12 00:41:11;;;;;;;61.10;34.00;;;307.50;2304.00;;;;;;5056317;28;20478;-80
2022/11/12 00:43:36;;;;;;;;;;;307.50;2304.00;;;;;;5056647;28;20390;-80
2022/11/12 00:46:02;;;;;;;55.55;31.63;;;307.40;2304.00;;;;;;5056522;28;20301;-80
2022/11/12 00:48:28;;;;;;;55.95;32.97;;;307.40;2304.00;;;;;;5056329;28;20074;-79
2022/11/12 00:51:02;;;;;;;59.97;32.53;;;307.50;2304.00;;;;;;5055376;28;20460;-80
2022/11/12 00:53:27;;;;;;;58.00;32.67;;;307.40;2304.00;;;;;;5056284;28;20024;-80
2022/11/12 00:55:59;;;;;;;58.13;32.67;;;307.40;2304.00;;;;;;5056238;28;20424;-79
2022/11/12 00:58:28;;;;;;;56.08;33.45;;;307.40;2304.00;;;;;;5055872;28;20492;-79
2022/11/12 01:00:53;;;;;;;56.55;33.70;;;307.40;2304.00;;;;;;5055672;28;20555;-80
2022/11/12 01:03:19;;;;;;;56.17;32.13;;;307.40;2304.00;;;;;;5056217;28;20021;-80
2022/11/12 01:05:45;;;;;;;54.13;33.45;;;307.50;2304.00;;;;;;5055773;28;20024;-80
2022/11/12 01:08:10;;;;;;;61.95;33.78;;;307.40;2304.00;;;;;;5055953;28;20024;-80
2022/11/12 01:10:36;;;;;;;62.13;32.92;;;307.50;2304.00;;;;;;5055597;28;20040;-80
2022/11/12 01:13:02;;;;;;;50.10;32.28;;;307.40;2304.00;;;;;;5054547;28;20426;-79
2022/11/12 01:15:27;;;;;;;55.60;33.22;;;307.50;2304.00;;;;;;5052300;28;20043;-79
2022/11/12 01:17:53;;;;;;;55.78;31.73;;;307.50;2304.00;;;;;;5055218;28;20078;-79
2022/11/12 01:20:19;;;;;;;55.05;32.28;;;307.40;2304.00;;;;;;5055584;28;20025;-80
2022/11/12 01:22:45;;;;;;;61.05;34.47;;;307.50;2304.00;;;;;;5055371;28;20043;-80
2022/11/12 01:25:10;;;;;;;55.58;32.05;;;307.40;2304.00;;;;;;5055811;28;20488;-79
2022/11/12 01:27:36;;;;;;;59.95;33.55;;;307.40;2304.00;;;;;;5055639;28;20536;-80
2022/11/12 01:30:03;;;;;;;53.45;32.85;;;307.40;2304.00;;;;;;5055288;28;20064;-80
2022/11/12 01:32:29;;;;;;;58.92;33.80;;;307.30;2304.00;;;;;;5054823;28;20466;-80
2022/11/12 01:34:55;;;;;;;51.38;30.50;;;307.30;2304.00;;;;;;5055630;28;20036;-79
2022/11/12 01:37:20;;;;;;;54.55;32.38;;;307.30;2304.00;;;;;;5055052;28;20025;-80
2022/11/12 01:39:46;;;;;;;55.13;34.17;;;307.40;2304.00;;;;;;5073198;28;20025;-80
2022/11/12 01:42:12;;;;;;;56.58;32.80;;;307.30;2304.00;;;;;;5054809;28;20539;-80
2022/11/12 01:44:40;;;;;;;56.00;30.90;;;307.30;2304.00;;;;;;5055129;28;20024;-80
2022/11/12 01:47:18;;;;;;;56.17;31.60;;;307.30;2304.00;;;;;;5054971;28;20072;-79
2022/11/12 01:49:50;;;;;;;56.33;31.92;;;307.30;2304.00;;;;;;5054854;28;20115;-80
2022/11/12 01:52:21;;;;;;;52.63;32.15;;;307.30;2304.00;;;;;;5052822;28;20537;-80
2022/11/12 01:54:51;;;;;;;57.03;31.10;;;307.30;2304.00;;;;;;5051332;28;20056;-79
2022/11/12 01:57:23;;;;;;;56.58;32.13;;;307.30;2304.00;;;;;;5054789;28;20103;-79
2022/11/12 01:59:53;;;;;;;55.85;32.10;;;307.20;2304.00;;;;;;5024087;28;20029;-80
2022/11/12 02:02:19;;;;;;;52.50;33.47;;;307.20;2304.00;;;;;;5019104;28;20033;-79
2022/11/12 02:04:47;;;;;;;59.20;31.95;;;307.20;2304.00;;;;;;5022871;28;20033;-80
2022/11/12 02:07:13;;;;;;;55.65;32.20;;;282.50;2278.40;;;;;;5023914;28;20399;-80
2022/11/12 02:09:38;;;;;;;51.92;31.83;;;282.50;2278.40;;;;;;5021417;28;20033;-79
2022/11/12 02:12:05;;;;;;;53.20;31.50;;;282.50;2278.40;;;;;;5023515;28;20548;-80
2022/11/12 02:14:31;;;;;;;56.42;30.90;;;282.50;2278.40;;;;;;5028879;28;20048;-79
2022/11/12 02:16:58;;;;;;;52.65;30.13;;;282.50;2278.40;;;;;;5027800;28;20052;-80
2022/11/12 02:19:25;;;;;;;50.90;29.92;;;282.50;2278.40;;;;;;5024614;28;20037;-80
2022/11/12 02:21:51;;;;;;;51.47;30.05;;;282.50;2278.40;;;;;;5023208;28;20048;-80
2022/11/12 02:24:16;;;;;;;50.58;31.52;;;282.50;2278.40;;;;;;5022166;28;20269;-80
2022/11/12 02:26:46;;;;;;;54.72;32.08;;;307.20;2304.00;;;;;;5011977;28;20025;-80
2022/11/12 02:29:12;;;;;;;53.92;30.63;;;307.20;2304.00;;;;;;5014002;28;20026;-80
2022/11/12 02:31:37;;;;;;;53.47;30.98;;;282.50;2278.40;;;;;;5024981;28;20032;-79
2022/11/12 02:34:03;;;;;;;57.13;31.08;;;307.20;2304.00;;;;;;5023416;28;20029;-79
2022/11/12 02:36:29;;;;;;;54.17;32.75;;;307.20;2304.00;;;;;;5022636;28;20489;-80
2022/11/12 02:38:56;;;;;;;51.88;30.83;;;307.20;2304.00;;;;;;5017275;28;20022;-80
2022/11/12 02:41:21;;;;;;;50.17;30.88;;;282.50;2278.40;;;;;;5028385;28;20024;-79
2022/11/12 02:43:47;;;;;;;51.20;31.10;;;282.50;2278.40;;;;;;5023475;28;20017;-79
2022/11/12 02:46:13;;;;;;;49.80;30.05;;;282.50;2278.40;;;;;;5023264;28;20060;-79
2022/11/12 02:48:39;;;;;;;52.22;31.73;;;282.50;2278.40;;;;;;5025146;28;20026;-80
2022/11/12 02:51:05;;;;;;;49.08;31.73;;;282.50;2278.40;;;;;;5015313;28;20494;-80
2022/11/12 02:53:31;;;;;;;56.17;32.05;;;307.20;2304.00;;;;;;5028588;28;20022;-79
2022/11/12 02:55:58;;;;;;;61.25;31.77;;;307.20;2304.00;;;;;;5030615;28;20036;-80
2022/11/12 02:58:24;;;;;;;49.10;30.15;;;307.20;2304.00;;;;;;5025495;28;20482;-80
2022/11/12 03:00:50;;;;;;;51.75;30.63;;;307.20;2304.00;;;;;;5050178;28;20053;-79
2022/11/12 03:03:16;;;;;;;52.30;30.10;;;307.20;2304.00;;;;;;5034734;28;20031;-80
2022/11/12 03:05:43;;;;;;;52.65;28.88;;;282.50;2278.40;;;;;;5071876;28;20021;-80
2022/11/12 03:08:08;;;;;;;55.28;30.58;;;282.50;2278.40;;;;;;5053590;28;20017;-80
2022/11/12 03:10:38;;;;;;;44.78;29.27;;;282.50;2278.40;;;;;;5054000;28;20079;-79
2022/11/12 03:13:04;;;;;;;52.85;30.10;;;282.40;2278.40;;;;;;5054103;28;20444;-79
2022/11/12 03:15:30;;;;;;;55.00;31.50;;;282.30;2278.40;;;;;;5054217;28;20029;-80
2022/11/12 03:17:57;;;;;;;65.90;31.08;;;307.20;2304.00;;;;;;5053736;28;20028;-79
2022/11/12 03:20:23;;;;;;;52.03;31.42;;;282.30;2278.40;;;;;;5054000;28;20020;-79
2022/11/12 03:22:57;;;;;;;48.55;30.95;;;282.10;2278.40;;;;;;5038805;28;20021;-80
2022/11/12 03:25:23;;;;;;;52.30;30.77;;;282.30;2278.40;;;;;;5046694;28;20079;-80
2022/11/12 03:27:59;;;;;;;52.40;30.15;;;282.20;2278.40;;;;;;5054012;28;20054;-80
2022/11/12 03:30:29;;;;;;;50.13;30.10;;;282.20;2278.40;;;;;;5044385;28;20058;-80
2022/11/12 03:32:55;;;;;;;52.83;31.58;;;282.20;2278.40;;;;;;5071579;28;20047;-79
2022/11/12 03:35:22;;;;;;;46.30;29.88;;;282.20;2278.40;;;;;;5054172;28;20139;-80
2022/11/12 03:37:48;;;;;;;51.75;31.52;;;282.20;2278.40;;;;;;5057387;28;20020;-79
2022/11/12 03:40:14;;;;;;;54.90;30.30;;;282.10;2278.40;;;;;;5057040;28;20028;-79
2022/11/12 03:42:47;;;;;;;50.08;29.75;;;282.10;2278.40;;;;;;5057468;28;20425;-80
2022/11/12 03:45:14;;;;;;;57.95;30.80;;;282.10;2278.40;;;;;;5057449;28;20059;-80
2022/11/12 03:47:42;;;;;;;53.45;29.27;;;282.10;2278.40;;;;;;5047619;28;20033;-79
2022/11/12 03:50:09;;;;;;;54.92;29.63;;;282.10;2278.40;;;;;;5050001;28;20185;-80
2022/11/12 03:52:35;;;;;;;55.78;32.05;;;282.10;2278.40;;;;;;5057079;28;20051;-79
2022/11/12 03:55:00;;;;;;;51.58;31.25;;;282.20;2278.40;;;;;;5054712;28;20398;-79
2022/11/12 03:57:26;;;;;;;48.00;29.10;;;282.20;2278.40;;;;;;5074863;28;20012;-79
2022/11/12 03:59:52;;;;;;;54.63;29.70;;;282.20;2278.40;;;;;;5056938;28;20055;-79
2022/11/12 04:02:17;;;;;;;63.45;31.95;;;282.20;2278.40;;;;;;5074045;28;20024;-80
2022/11/12 04:10:11;;;;;;;46.42;29.48;;;282.20;2278.40;;;;;;5071859;28;20508;-79
2022/11/12 04:15:21;;;;;;;48.30;28.98;;;282.20;2278.40;;;;;;5053262;28;20074;-80
2022/11/12 04:23:34;;;;;;;53.42;30.17;;;282.30;2278.40;;;;;;4997095;28;20538;-80
2022/11/12 04:31:29;;;;;;;45.22;29.33;;;282.40;2278.40;;;;;;5009155;28;20057;-80
2022/11/12 04:33:54;;;;;;;48.85;28.55;;;282.40;2278.40;;;;;;4993040;28;20026;-80
2022/11/12 04:36:20;;;;;;;49.25;28.85;;;282.50;2278.40;;;;;;5011378;28;20076;-80
2022/11/12 04:38:46;;;;;;;54.38;31.30;;;282.50;2278.40;;;;;;5004448;28;20117;-80
2022/11/12 04:46:40;;;;;;;52.13;27.73;;;282.50;2278.40;;;;;;4998870;28;20087;-80
2022/11/12 04:49:05;;;;;;;52.22;28.98;;;282.40;2278.40;;;;;;5007310;28;20031;-80
2022/11/12 04:54:15;;;;;;;53.55;29.10;;;282.50;2278.40;;;;;;5071677;28;20170;-80
2022/11/12 04:56:41;;;;;;;49.45;28.98;;;282.40;2278.40;;;;;;5055679;28;20541;-79
2022/11/12 04:59:07;;;;;;;44.75;27.95;;;282.50;2278.40;;;;;;5047241;28;20029;-80
2022/11/12 05:01:32;;;;;;;42.63;26.42;;;282.40;2278.40;;;;;;5054512;28;20114;-80
2022/11/12 05:03:58;;;;;;;43.20;26.40;;;282.50;2278.40;;;;;;5056042;28;20082;-79
2022/11/12 05:09:08;;;;;;;53.08;30.27;;;282.40;2278.40;;;;;;5068833;28;20032;-80
2022/11/12 05:11:33;;;;;;;43.72;28.90;;;282.40;2278.40;;;;;;5055964;28;20032;-80
2022/11/12 05:13:59;;;;;;;50.55;28.48;;;282.50;2278.40;;;;;;5055956;28;20474;-81
2022/11/12 05:16:25;;;;;;;50.15;29.13;;;282.30;2278.40;;;;;;5073307;28;20029;-80
2022/11/12 05:18:51;;;;;;;49.03;28.40;;;282.30;2278.40;;;;;;5055862;28;20584;-79
2022/11/12 05:24:01;;;;;;;53.03;29.30;;;282.20;2278.40;;;;;;5073710;28;20104;-80
2022/11/12 05:26:28;;;;;;;47.38;28.65;;;282.10;2278.40;;;;;;5055898;28;20517;-79
2022/11/12 05:28:53;;;;;;;46.65;28.80;;;282.00;2278.40;;;;;;5055346;28;20036;-79
2022/11/12 05:31:19;;;;;;;53.25;28.42;;;282.00;2278.40;;;;;;5055603;28;20119;-80
2022/11/12 05:33:45;;;;;;;49.10;30.10;;;282.00;2278.40;;;;;;5073166;28;20055;-80
2022/11/12 05:36:10;;;;;;;47.17;31.08;;;281.90;2278.40;;;;;;5055194;28;20031;-79
2022/11/12 05:38:37;;;;;;;57.22;30.92;;;282.00;2278.40;;;;;;5055197;28;20465;-80
2022/11/12 05:41:03;;;;;;;54.85;29.10;;;281.90;2278.40;;;;;;5055184;28;20082;-79
2022/11/12 05:43:29;;;;;;;51.65;31.05;;;281.80;2278.40;;;;;;5055228;28;20428;-78
2022/11/12 05:45:55;;;;;;;50.90;30.58;;;281.60;2278.40;;;;;;5054497;28;20046;-78
2022/11/12 05:48:20;;;;;;;;;;;281.60;2278.40;;;;;;5054932;28;20082;-79
2022/11/12 05:50:50;;;;;;;48.88;31.00;;;256.90;2252.80;;;;;;5054003;28;19912;-77
2022/11/12 05:53:16;;;;;;;61.83;33.45;;;256.80;2252.80;;;;;;5054256;28;20047;-77
2022/11/12 05:55:41;;;;;;;48.78;30.08;;;256.90;2252.80;;;;;;5053380;28;20486;-77
2022/11/12 05:58:07;;;;;;;53.38;31.58;;;281.60;1894.40;;;;;;5053476;28;20027;-77
2022/11/12 06:00:40;;;;;;;;;;;281.60;2278.40;;;;;;5054017;28;20044;-77
2022/11/12 06:03:10;;;;;;;50.78;30.85;;;281.60;2278.40;;;;;;5053824;28;19954;-77
2022/11/12 06:05:36;;;;;;;57.03;31.83;;;281.60;2278.40;;;;;;5054234;28;20032;-77
2022/11/12 06:08:04;;;;;;;57.20;32.38;;;281.60;1971.20;;;;;;5053895;28;20021;-77
2022/11/12 06:10:33;;;;;;;61.35;32.60;;;281.60;1894.40;;;;;;5071761;28;20102;-77
2022/11/12 06:12:58;;;;;;;57.30;33.28;;;281.60;2278.40;;;;;;5053705;28;20043;-78
2022/11/12 06:15:25;;;;;;;61.00;33.25;;;281.60;2278.40;;;;;;5054344;28;20498;-78
2022/11/12 06:17:54;;;;;;;57.05;31.23;;;281.70;2022.40;;;;;;5066940;28;20016;-79
2022/11/12 06:20:22;;;;;;;55.65;33.65;;;281.80;2278.40;;;;;;5052362;28;20043;-78
2022/11/12 06:22:48;;;;;;;53.72;32.90;;;281.90;2278.40;;;;;;5037522;28;20021;-78
2022/11/12 06:25:14;;;;;;;58.13;32.38;;;282.00;2278.40;;;;;;5045742;28;20025;-79
2022/11/12 06:27:40;;;;;;;55.05;32.78;;;281.90;2278.40;;;;;;5053995;28;20017;-78
2022/11/12 06:30:06;;;;;;;;;;;282.00;2278.40;;;;;;5054216;28;20125;-78
2022/11/12 06:32:32;;;;;;;39.67;24.95;;;282.10;2278.40;;;;;;5052082;28;19912;-79
2022/11/12 06:34:58;;;;;;;54.58;32.97;;;282.20;2278.40;;;;;;5053931;28;20116;-78
2022/11/12 06:37:23;;;;;;;56.88;33.65;;;282.20;2278.40;;;;;;5052009;28;20048;-79
2022/11/12 06:39:49;;;;;;;61.90;34.65;;;282.30;2278.40;;;;;;5036844;28;20553;-80
2022/11/12 06:42:15;;;;;;;59.92;32.55;;;282.40;2278.40;;;;;;5054265;28;20016;-83
2022/11/12 06:44:41;;;;;;;67.07;33.13;;;282.40;2278.40;;;;;;5054522;28;20032;-80
2022/11/12 06:47:08;;;;;;;56.38;33.15;;;282.40;2278.40;;;;;;5053772;28;20151;-79
2022/11/12 06:49:34;;;;;;;49.65;31.95;;;282.40;2278.40;;;;;;5054217;28;20033;-80
2022/11/12 06:51:59;;;;;;;52.15;32.17;;;282.30;2278.40;;;;;;5071770;28;20178;-81
2022/11/12 06:54:25;;;;;;;63.40;34.35;;;282.30;2278.40;;;;;;5038901;28;20483;-81
2022/11/12 06:56:51;;;;;;;60.90;35.70;;;282.30;2278.40;;;;;;5046194;28;20025;-80
2022/11/12 06:59:17;;;;;;;57.13;33.00;;;282.30;2278.40;;;;;;5064087;28;20463;-84
2022/11/12 07:01:42;;;;;;;57.35;33.15;;;282.40;2278.40;;;;;;5054623;28;20024;-81
2022/11/12 07:04:09;;;;;;;57.92;34.25;;;282.40;2278.40;;;;;;5035835;28;20426;-80
2022/11/12 07:06:35;;;;;;;56.08;33.22;;;282.40;2278.40;;;;;;5034919;28;20028;-81
2022/11/12 07:09:02;;;;;;;64.80;35.88;;;282.40;2278.40;;;;;;5034510;28;20033;-81
2022/11/12 07:11:28;;;;;;;64.25;37.38;;;307.20;2304.00;;;;;;5036763;28;20490;-79
2022/11/12 07:13:53;;;;;;;63.85;35.35;;;307.30;2304.00;;;;;;5037931;28;20063;-81
2022/11/12 07:16:21;;;;;;;56.55;33.78;;;307.30;2304.00;;;;;;5065635;28;20024;-89
2022/11/12 07:18:47;;;;;;;62.15;35.47;;;307.40;2304.00;;;;;;5073106;28;20441;-83
2022/11/12 07:21:16;;;;;;;58.95;34.47;;;307.40;2304.00;;;;;;5018528;28;20080;-79
2022/11/12 07:23:42;;;;;;;55.95;32.90;;;307.50;2304.00;;;;;;5058073;28;20604;-78
2022/11/12 07:26:16;;;;;;;57.78;35.47;;;307.50;2304.00;;;;;;5057105;28;20060;-81
2022/11/12 07:28:43;;;;;;;55.97;33.33;;;307.50;2304.00;;;;;;5057232;28;20025;-80
2022/11/12 07:31:11;;;;;;;49.47;34.17;;;307.60;2304.00;;;;;;5057628;28;20075;-80
2022/11/12 07:33:37;;;;;;;55.70;32.65;;;307.60;2304.00;;;;;;5057575;28;20020;-83
2022/11/12 07:36:04;;;;;;;52.60;31.98;;;307.70;2304.00;;;;;;5057048;28;20500;-83
2022/11/12 07:38:32;;;;;;;66.18;33.88;;;307.70;2304.00;;;;;;5055199;28;20097;-79
2022/11/12 07:40:59;;;;;;;49.25;31.33;;;307.80;2304.00;;;;;;5048204;28;20021;-80
2022/11/12 07:43:25;;;;;;;45.65;30.05;;;307.80;2304.00;;;;;;5037942;28;20025;-79
2022/11/12 07:45:51;;;;;;;51.17;31.45;;;307.80;2304.00;;;;;;5037396;28;20037;-77
2022/11/12 07:48:17;;;;;;;53.22;31.55;;;307.80;2304.00;;;;;;5037526;28;20027;-80
2022/11/12 07:50:42;;;;;;;49.67;29.55;;;307.90;2304.00;;;;;;5037415;28;20048;-80
2022/11/12 07:53:08;;;;;;;51.30;30.30;;;307.90;2304.00;;;;;;5037090;28;20075;-80
2022/11/12 07:55:34;;;;;;;44.33;30.60;;;308.00;2304.00;;;;;;5037328;28;20061;-78
2022/11/12 07:57:59;;;;;;;51.13;30.33;;;308.00;2304.00;;;;;;5020430;28;20033;-80
2022/11/12 08:00:25;;;;;;;49.05;30.27;;;308.00;2304.00;;;;;;5027934;28;20063;-79
2022/11/12 08:02:51;;;;;;;50.92;29.42;;;308.10;2304.00;;;;;;5049518;28;20029;-80
2022/11/12 08:05:17;;;;;;;42.10;27.92;;;308.10;2304.00;;;;;;5055003;28;20463;-80
2022/11/12 08:07:42;;;;;;;47.60;29.00;;;332.80;2329.60;;;;;;5036531;28;20452;-81
2022/11/12 08:10:09;;;;;;;45.03;28.25;;;332.80;2329.60;;;;;;5036925;28;20041;-79
2022/11/12 08:12:34;;;;;;;49.33;29.73;;;332.80;2329.60;;;;;;5069258;28;20017;-80
2022/11/12 08:15:00;;;;;;;46.60;26.48;;;332.90;2329.60;;;;;;5037501;28;20382;-78
2022/11/12 08:17:26;;;;;;;52.78;27.45;;;333.00;2329.60;;;;;;5069532;28;20027;-82
2022/11/12 08:19:54;;;;;;;42.60;26.90;;;332.90;2329.60;;;;;;5037603;28;20029;-78
2022/11/12 08:22:20;;;;;;;42.25;27.20;;;332.90;2329.60;;;;;;5036478;28;20372;-78
2022/11/12 08:24:45;;;;;;;37.80;25.70;;;333.00;2329.60;;;;;;5023295;28;20033;-80
2022/11/12 08:27:11;;;;;;;54.47;31.30;;;333.00;2329.60;;;;;;5037351;28;20528;-77
2022/11/12 08:29:37;;;;;;;40.38;26.13;;;333.00;2329.60;;;;;;5032141;28;20037;-78
2022/11/12 08:32:02;;;;;;;40.70;25.27;;;333.00;2329.60;;;;;;5037798;28;20052;-80
2022/11/12 08:34:28;;;;;;;42.20;29.08;;;333.10;2329.60;;;;;;5057976;28;20166;-81
2022/11/12 08:36:54;;;;;;;44.10;27.77;;;333.20;2329.60;;;;;;5044919;28;20024;-78
2022/11/12 08:39:19;;;;;;;50.47;29.55;;;333.20;2329.60;;;;;;5042722;28;20379;-82
2022/11/12 08:41:45;;;;;;;46.30;28.15;;;333.30;2329.60;;;;;;5043159;28;20078;-80
2022/11/12 08:44:11;;;;;;;41.50;26.85;;;333.30;2329.60;;;;;;5032979;28;20030;-79
2022/11/12 08:46:37;;;;;;;39.28;26.13;;;333.30;2329.60;;;;;;5039728;28;20027;-83
2022/11/12 08:49:03;;;;;;;45.38;27.13;;;333.40;2329.60;;;;;;5056947;28;20036;-81
2022/11/12 08:51:28;;;;;;;44.08;27.08;;;333.50;2329.60;;;;;;5040660;28;20108;-84
2022/11/12 08:53:54;;;;;;;43.35;26.05;;;333.50;2329.60;;;;;;5036735;28;20548;-85
2022/11/12 08:56:20;;;;;;;42.38;25.42;;;333.60;2329.60;;;;;;5050967;28;20023;-80
2022/11/12 08:58:46;;;;;;;41.67;26.65;;;333.70;2329.60;;;;;;5050530;28;20486;-80
2022/11/12 09:01:11;;;;;;;45.70;24.98;;;333.70;2329.60;;;;;;5044752;28;20048;-82
2022/11/12 09:03:38;;;;;;;44.70;27.50;;;358.50;2329.60;;;;;;5056537;28;20508;-80
2022/11/12 09:06:04;;;;;;;48.22;27.15;;;358.50;2329.60;;;;;;5036516;28;20032;-81
2022/11/12 09:08:33;;;;;;;45.45;26.90;;;358.60;2329.60;;;;;;5037078;28;20056;-82
2022/11/12 09:10:59;;;;;;;51.85;29.20;;;358.70;2329.60;;;;;;5036181;28;20036;-79
2022/11/12 09:13:24;;;;;;;44.97;27.42;;;358.80;2329.60;;;;;;5047366;28;20024;-80
2022/11/12 09:15:50;;;;;;;51.33;26.20;;;358.80;2329.60;;;;;;5042635;28;20547;-79
2022/11/12 09:18:17;;;;;;;50.10;27.27;;;359.00;2329.60;;;;;;5046861;28;20061;-81
2022/11/12 09:20:43;;;;;;;43.33;27.98;;;359.20;2329.60;;;;;;5036661;28;20025;-84
2022/11/12 09:23:16;;;;;;;50.00;28.83;;;359.30;2329.60;;;;;;5036560;28;20017;-79
2022/11/12 09:25:42;;;;;;;41.83;26.15;;;359.30;2329.60;;;;;;5036295;28;20412;-79
2022/11/12 09:28:10;;;;;;;46.33;28.90;;;384.00;2329.60;;;;;;5022107;28;20111;-80
2022/11/12 09:30:37;;;;;;;49.58;26.42;;;384.30;2329.60;;;;;;5048484;28;20044;-82
2022/11/12 09:33:03;;;;;;;47.15;27.08;;;384.40;2329.60;;;;;;5027387;28;20021;-85
2022/11/12 09:35:29;;;;;;;42.47;27.35;;;384.50;2329.60;;;;;;5045774;28;20028;-84
2022/11/12 09:37:57;;;;;;;50.10;26.02;;;384.60;2329.60;;;;;;5052247;28;20058;-82
2022/11/12 09:40:45;;;;;;;41.42;25.83;;;384.70;2329.60;;;;;;5055266;28;20028;-81
2022/11/12 09:43:33;;;;;;;37.78;23.30;;;384.80;2329.60;;;;;;5066430;28;20021;-85
2022/11/12 09:46:22;;;;;;;45.13;25.88;;;409.60;2355.20;;;;;;5035806;28;20025;-88
2022/11/12 09:48:54;;;;;;;43.40;27.30;;;409.70;2355.20;;;;;;5002005;28;20066;-88
2022/11/12 09:51:33;;;;;;;39.78;26.42;;;409.80;2355.20;;;;;;4995529;28;20034;-78
2022/11/12 09:54:05;;;;;;;51.60;29.42;;;410.00;2355.20;;;;;;4988398;28;20069;-78
2022/11/12 09:56:31;;;;;;;39.42;24.77;;;410.30;2355.20;;;;;;4971823;28;20022;-79
2022/11/12 09:58:57;;;;;;;46.63;26.48;;;410.30;2355.20;;;;;;4991444;28;20093;-77
2022/11/12 10:01:41;;;;;;;47.70;26.52;;;435.20;2355.20;;;;;;4984334;28;20065;-78
2022/11/12 10:04:25;;;;;;;50.17;27.45;;;410.40;2355.20;;;;;;4989649;28;20106;-78
2022/11/12 10:07:02;;;;;;;52.97;30.42;;;435.30;2355.20;;;;;;4980814;28;20039;-79
2022/11/12 10:09:50;;;;;;;49.72;27.15;;;435.40;2355.20;;;;;;4991558;28;20133;-79
2022/11/12 10:12:31;;;;;;;45.85;25.88;;;435.50;2355.20;;;;;;4975572;28;20061;-83
2022/11/12 10:18:08;;;;;;;45.25;28.58;;;410.30;2355.20;;;;;;4992021;28;20400;-80
2022/11/12 10:20:42;;;;;;;40.25;25.85;;;410.50;2355.20;;;;;;4991926;28;20065;-79
2022/11/12 10:23:19;;;;;;;42.30;25.30;;;435.60;2355.20;;;;;;4975595;28;20023;-85
2022/11/12 10:25:48;;;;;;;48.72;27.80;;;410.30;2355.20;;;;;;5014709;28;20029;-80
2022/11/12 10:28:29;;;;;;;46.35;25.85;;;435.20;2355.20;;;;;;5047988;28;20025;-80
2022/11/12 10:31:04;;;;;;;36.30;24.17;;;435.70;2355.20;;;;;;5034865;28;20545;-81
2022/11/12 10:33:31;;;;;;;38.57;22.30;;;460.80;2380.80;;;;;;5035695;28;20037;-81
2022/11/12 10:36:18;;;;;;;36.47;22.80;;;460.80;2380.80;;;;;;5049284;28;20024;-79
2022/11/12 10:38:46;;;;;;;36.92;23.13;;;461.00;2380.80;;;;;;5034794;28;20036;-82
2022/11/12 10:41:19;;;;;;;45.47;23.25;;;461.10;2380.80;;;;;;5046622;28;20038;-82
2022/11/12 10:44:24;;;;;;;39.92;23.85;;;435.80;2355.20;;;;;;5041622;28;20029;-81
2022/11/12 10:46:49;;;;;;;40.25;25.63;;;435.60;2355.20;;;;;;5009001;28;20029;-82
2022/11/12 10:49:15;;;;;;;39.13;23.90;;;435.90;2355.20;;;;;;4994263;28;20049;-79
2022/11/12 10:51:54;;;;;;;32.65;20.38;;;460.80;2380.80;;;;;;5010550;28;20025;-80
2022/11/12 10:54:26;;;;;;;36.15;21.83;;;460.80;2380.80;;;;;;4980065;28;20066;-79
2022/11/12 10:56:52;;;;;;;34.75;19.88;;;436.10;2355.20;;;;;;4993366;28;20030;-81
2022/11/12 10:59:25;;;;;;;31.33;18.33;;;460.90;2380.80;;;;;;4994664;28;20042;-81
2022/11/12 11:01:56;;;;;;;38.58;20.95;;;435.70;2355.20;;;;;;4994256;28;20034;-79
2022/11/12 11:04:34;;;;;;;37.35;22.73;;;435.50;2355.20;;;;;;4977394;28;20504;-81
2022/11/12 11:07:20;;;;;;;34.33;19.33;;;435.90;2355.20;;;;;;4991228;28;20033;-80
2022/11/12 11:09:53;;;;;;;30.92;17.95;;;460.80;2380.80;;;;;;4975072;28;20137;-80
2022/11/12 11:12:24;;;;;;;31.10;17.33;;;436.10;2355.20;;;;;;4990848;28;20033;-80
2022/11/12 11:15:17;;;;;;;33.22;19.77;;;460.80;2380.80;;;;;;4994133;28;20076;-80
2022/11/12 11:17:43;;;;;;;30.67;17.00;;;435.90;2355.20;;;;;;4973676;28;20019;-80
2022/11/12 11:20:24;;;;;;;27.27;18.23;;;435.90;2355.20;;;;;;4965296;28;20034;-80
2022/11/12 11:22:55;;;;;;;26.30;17.33;;;435.50;2355.20;;;;;;5035682;28;20025;-80
2022/11/12 11:25:29;;;;;;;28.05;17.00;;;435.40;2355.20;;;;;;5043318;28;20024;-80
2022/11/12 11:28:19;;;;;;;33.40;18.25;;;435.70;2355.20;;;;;;5053181;28;20049;-80
2022/11/12 11:31:05;;;;;;;27.83;17.73;;;435.90;2355.20;;;;;;5044337;28;20110;-80
2022/11/12 11:33:53;;;;;;;32.15;18.92;;;460.80;2380.80;;;;;;5053875;28;20020;-80
2022/11/12 11:36:22;;;;;;;29.48;18.40;;;461.00;2380.80;;;;;;5045958;28;20029;-80
2022/11/12 11:38:53;;;;;;;35.30;20.02;;;461.10;2380.80;;;;;;5056737;28;20051;-80
2022/11/12 11:41:39;;;;;;;26.63;15.70;;;461.30;2380.80;;;;;;5034375;28;20025;-80
2022/11/12 11:44:11;;;;;;;29.75;18.70;;;461.40;2252.80;;;;;;5003117;28;20124;-80
2022/11/12 11:46:45;;;;;;;26.65;16.85;;;461.30;2355.20;;;;;;5009454;28;20030;-80
2022/11/12 11:49:17;;;;;;;30.15;16.45;;;460.80;2380.80;;;;;;4999565;28;20497;-80
2022/11/12 11:51:48;;;;;;;24.92;15.95;;;460.80;2329.60;;;;;;5010106;28;20022;-80
2022/11/12 11:54:29;;;;;;;29.25;16.42;;;461.00;2355.20;;;;;;5008292;28;20021;-80
2022/11/12 11:56:59;;;;;;;27.23;16.27;;;461.30;2355.20;;;;;;5010952;28;20072;-80
2022/11/12 11:59:48;;;;;;;27.10;17.27;;;461.00;2278.40;;;;;;4996409;28;20554;-80
2022/11/12 12:02:47;;;;;;;24.63;16.38;;;460.80;2380.80;;;;;;5012555;28;20061;-81
2022/11/12 12:05:34;;;;;;;27.75;17.35;;;460.90;2329.60;;;;;;5011768;28;20017;-80
2022/11/12 12:08:17;;;;;;;28.58;18.77;;;460.80;2304.00;;;;;;5012798;28;20391;-79
2022/11/12 12:10:51;;;;;;;28.15;18.90;;;460.80;2380.80;;;;;;5013145;28;20042;-80
2022/11/12 12:13:54;;;;;;;39.13;21.40;;;435.90;2355.20;;;;;;4995649;28;20038;-80
2022/11/12 12:16:45;;;;;;;34.25;21.83;;;435.80;2355.20;;;;;;5012510;28;20140;-80
2022/11/12 12:19:48;;;;;;;42.67;23.25;;;435.80;2355.20;;;;;;4998761;28;20038;-80
2022/11/12 12:22:24;;;;;;;40.70;23.70;;;435.90;2355.20;;;;;;5059729;28;20068;-77
2022/11/12 12:25:00;;;;;;;29.83;18.55;;;435.80;2355.20;;;;;;5029279;28;20025;-84
2022/11/12 12:27:37;;;;;;;32.85;19.45;;;435.80;2355.20;;;;;;5032168;28;20059;-81
2022/11/12 12:30:14;;;;;;;41.50;24.80;;;435.90;2355.20;;;;;;5037370;28;20041;-80
2022/11/12 12:32:53;;;;;;;77.28;47.55;;;435.90;2355.20;;;;;;5041953;28;20055;-81
2022/11/12 12:35:33;;;;;;;43.95;28.13;;;435.90;2355.20;;;;;;5037253;28;20124;-82
2022/11/12 12:38:11;;;;;;;26.67;16.73;;;435.90;2355.20;;;;;;5054888;28;20028;-80
2022/11/12 12:40:45;;;;;;;29.75;18.50;;;435.60;2329.60;;;;;;5068957;28;20017;-79
2022/11/12 12:43:27;;;;;;;31.52;20.65;;;435.60;2355.20;;;;;;5036535;28;20025;-81
2022/11/12 12:45:55;;;;;;;28.90;19.17;;;435.50;2355.20;;;;;;5037075;28;20048;-78
2022/11/12 12:48:35;;;;;;;26.60;17.02;;;435.50;2355.20;;;;;;5047254;28;20068;-79